Time;durP1;ratioP1;P1;durP2;ratioP2;P2;SDS_P1;SDS_P2;PMS_P1;PMS_P2;Temp;Humidity;BMP_temperature;BMP_pressure;BME280_temperature;BME280_humidity;BME280_pressure;Samples;Min_cycle;Max_cycle;Signal;HPM_P1;HPM_P2
2023/03/09 00:01:40;;;;;;;10.83;10.10;;;11.00;99.90;;;;;;10526209;28;20238;-80
2023/03/09 00:06:43;;;;;;;10.87;10.10;;;11.10;99.90;;;;;;10525064;28;20193;-81
2023/03/09 00:11:47;;;;;;;10.30;9.50;;;11.10;99.90;;;;;;10525705;28;20224;-81
2023/03/09 00:16:51;;;;;;;12.67;11.47;;;11.10;99.90;;;;;;10507652;28;20288;-81
2023/03/09 00:21:54;;;;;;;12.67;11.63;;;11.10;99.90;;;;;;10524944;28;20229;-81
2023/03/09 00:26:57;;;;;;;12.10;11.40;;;11.10;99.90;;;;;;10523826;28;20325;-81
2023/03/09 00:32:01;;;;;;;10.77;10.13;;;11.10;99.90;;;;;;10509206;28;20212;-83
2023/03/09 00:37:03;;;;;;;10.07;9.47;;;11.10;99.90;;;;;;10508615;28;20310;-81
2023/03/09 00:42:06;;;;;;;10.70;10.23;;;11.10;99.90;;;;;;10510959;28;20251;-83
2023/03/09 00:47:10;;;;;;;16.73;15.27;;;11.10;99.90;;;;;;10505779;28;20231;-83
2023/03/09 00:52:12;;;;;;;10.33;9.80;;;11.10;99.90;;;;;;10531709;28;20244;-82
2023/03/09 00:57:14;;;;;;;10.00;9.40;;;11.10;99.90;;;;;;10508489;28;20228;-82
2023/03/09 01:02:17;;;;;;;9.00;8.60;;;11.10;99.90;;;;;;10515124;28;20230;-83
2023/03/09 01:07:22;;;;;;;10.43;9.60;;;11.10;99.90;;;;;;10538702;28;20607;-81
2023/03/09 01:12:24;;;;;;;9.13;8.73;;;11.00;99.90;;;;;;10521484;28;20217;-81
2023/03/09 01:17:27;;;;;;;8.40;8.10;;;10.90;99.90;;;;;;10504809;28;20201;-80
2023/03/09 01:22:29;;;;;;;6.60;6.40;;;10.90;99.90;;;;;;10520422;28;20231;-82
2023/03/09 01:27:31;;;;;;;7.33;6.93;;;10.80;99.90;;;;;;10518747;28;20643;-81
2023/03/09 01:32:35;;;;;;;6.73;6.50;;;10.60;99.90;;;;;;10507541;28;20212;-80
2023/03/09 01:37:38;;;;;;;6.37;6.17;;;10.40;99.90;;;;;;10522003;28;20243;-81
2023/03/09 01:42:40;;;;;;;6.30;6.10;;;10.30;99.90;;;;;;10505530;28;20232;-80
2023/03/09 01:47:44;;;;;;;7.20;6.67;;;10.30;99.90;;;;;;10525462;28;20292;-80
2023/03/09 01:52:48;;;;;;;6.27;5.97;;;10.20;99.90;;;;;;10528035;28;20635;-80
2023/03/09 01:57:55;;;;;;;6.30;6.10;;;10.20;99.90;;;;;;10526583;28;20250;-80
2023/03/09 02:03:04;;;;;;;6.40;6.10;;;10.20;99.90;;;;;;10507128;28;20285;-80
2023/03/09 02:08:07;;;;;;;6.83;6.43;;;10.20;99.90;;;;;;10527205;28;20211;-80
2023/03/09 02:13:16;;;;;;;6.10;5.90;;;10.10;99.90;;;;;;10512943;28;20638;-80
2023/03/09 02:18:19;;;;;;;6.50;6.27;;;10.10;99.90;;;;;;10527917;28;20222;-80
2023/03/09 02:23:29;;;;;;;6.10;5.90;;;10.10;99.90;;;;;;10510215;28;20223;-80
2023/03/09 02:28:34;;;;;;;6.40;6.10;;;10.00;99.90;;;;;;10527834;28;20600;-82
2023/03/09 02:33:36;;;;;;;6.43;6.23;;;10.00;99.90;;;;;;10528767;28;20214;-80
2023/03/09 02:38:39;;;;;;;6.53;6.33;;;9.90;99.90;;;;;;10488208;28;20224;-80
2023/03/09 02:43:46;;;;;;;6.90;6.60;;;9.90;99.90;;;;;;10524016;22;20607;-78
2023/03/09 02:48:48;;;;;;;6.50;6.20;;;9.90;99.90;;;;;;10505531;28;20237;-79
2023/03/09 02:53:54;;;;;;;5.40;5.20;;;9.90;99.90;;;;;;10488879;28;20243;-79
2023/03/09 02:58:57;;;;;;;5.40;5.10;;;10.00;99.90;;;;;;10484467;28;20741;-79
2023/03/09 03:03:59;;;;;;;5.67;5.37;;;10.00;99.90;;;;;;10497717;28;20626;-80
2023/03/09 03:09:19;;;;;;;5.57;5.30;;;10.10;99.90;;;;;;10489598;28;20200;-80
2023/03/09 03:21:37;;;;;;;10.50;9.50;;;10.30;99.90;;;;;;10437140;28;20319;-78
2023/03/09 03:27:43;;;;;;;8.13;6.23;;;10.40;99.90;;;;;;10499591;28;20217;-79
2023/03/09 03:33:29;;;;;;;6.43;6.00;;;10.50;99.90;;;;;;10509213;28;20241;-79
2023/03/09 03:45:02;;;;;;;5.50;5.30;;;10.60;99.90;;;;;;10471007;28;20260;-78
2023/03/09 03:50:52;;;;;;;5.63;5.43;;;10.50;99.90;;;;;;10467646;28;20224;-79
2023/03/09 03:56:26;;;;;;;5.33;5.13;;;10.50;99.90;;;;;;10503954;28;20201;-79
2023/03/09 04:07:24;;;;;;;6.57;6.10;;;10.30;99.90;;;;;;10459880;28;20203;-79
2023/03/09 04:12:26;;;;;;;6.97;6.47;;;10.30;99.90;;;;;;10499704;28;20220;-79
2023/03/09 04:17:29;;;;;;;6.07;5.50;;;10.30;99.90;;;;;;10508002;28;20282;-78
2023/03/09 04:22:32;;;;;;;5.83;5.50;;;10.40;99.90;;;;;;10490144;28;20319;-79
2023/03/09 04:27:35;;;;;;;6.13;5.47;;;10.40;99.90;;;;;;10504943;28;20198;-78
2023/03/09 04:33:00;;;;;;;6.43;5.83;;;10.50;99.90;;;;;;10503633;28;20209;-78
2023/03/09 04:38:05;;;;;;;5.17;4.50;;;10.50;99.90;;;;;;10499515;28;20286;-78
2023/03/09 04:43:08;;;;;;;9.70;5.80;;;10.50;99.90;;;;;;10498196;28;20282;-78
2023/03/09 04:48:11;;;;;;;8.10;4.70;;;10.50;99.90;;;;;;10477471;28;20672;-78
2023/03/09 04:53:15;;;;;;;6.27;3.80;;;10.60;99.90;;;;;;10479540;28;20244;-78
2023/03/09 04:58:17;;;;;;;10.00;5.23;;;10.60;99.90;;;;;;10503993;28;20376;-78
2023/03/09 05:03:20;;;;;;;7.00;4.80;;;10.50;99.90;;;;;;10490283;28;20221;-77
2023/03/09 05:08:27;;;;;;;8.07;4.60;;;10.50;99.90;;;;;;10488949;28;20224;-79
2023/03/09 05:13:29;;;;;;;5.80;3.70;;;10.50;99.90;;;;;;10503313;28;20236;-80
2023/03/09 05:18:34;;;;;;;6.57;3.70;;;10.50;99.90;;;;;;10481693;28;20215;-81
2023/03/09 05:23:38;;;;;;;6.60;2.93;;;10.50;99.90;;;;;;10492736;28;20226;-80
2023/03/09 05:28:41;;;;;;;10.03;3.80;;;10.50;99.90;;;;;;10488694;28;20754;-80
2023/03/09 05:33:49;;;;;;;7.60;3.43;;;10.60;99.90;;;;;;10497680;28;20282;-80
2023/03/09 05:38:55;;;;;;;6.17;3.57;;;10.60;99.90;;;;;;10511803;28;20290;-81
2023/03/09 05:44:00;;;;;;;3.00;2.43;;;10.70;99.90;;;;;;10501872;28;20222;-80
2023/03/09 05:49:02;;;;;;;8.00;3.03;;;10.70;99.90;;;;;;10507306;28;20204;-80
2023/03/09 05:54:06;;;;;;;9.30;2.57;;;10.70;99.90;;;;;;10509019;28;20816;-80
2023/03/09 05:59:12;;;;;;;6.77;2.80;;;10.70;99.90;;;;;;10488707;28;20288;-82
2023/03/09 06:04:16;;;;;;;5.60;3.77;;;10.70;99.90;;;;;;10499267;28;20279;-80
2023/03/09 06:09:25;;;;;;;9.30;4.43;;;10.70;99.90;;;;;;10506448;28;20198;-80
2023/03/09 06:14:31;;;;;;;5.93;3.70;;;10.70;99.90;;;;;;10514412;28;20220;-79
2023/03/09 06:19:33;;;;;;;9.60;3.70;;;10.70;99.90;;;;;;10502896;28;20232;-80
2023/03/09 06:24:37;;;;;;;10.43;3.70;;;10.70;99.90;;;;;;10488996;28;20208;-80
2023/03/09 06:29:40;;;;;;;4.93;2.83;;;10.70;99.90;;;;;;10491147;28;20220;-80
2023/03/09 06:34:42;;;;;;;6.40;3.03;;;10.80;99.90;;;;;;10489921;28;20197;-81
2023/03/09 06:39:49;;;;;;;11.10;5.80;;;10.80;99.90;;;;;;10502514;28;20225;-81
2023/03/09 06:44:52;;;;;;;6.20;2.57;;;10.90;99.90;;;;;;10499534;28;20205;-79
2023/03/09 06:49:57;;;;;;;7.07;3.30;;;11.00;99.90;;;;;;10507920;28;20247;-79
2023/03/09 06:55:03;;;;;;;6.50;3.53;;;11.00;99.90;;;;;;10529960;28;20335;-79
2023/03/09 07:00:11;;;;;;;6.50;2.70;;;11.10;99.90;;;;;;10504361;28;20227;-80
2023/03/09 07:05:22;;;;;;;5.70;2.40;;;11.20;99.90;;;;;;10505416;28;20224;-80
2023/03/09 07:10:32;;;;;;;4.73;2.90;;;11.30;99.90;;;;;;10522452;28;20217;-79
2023/03/09 07:15:36;;;;;;;4.10;2.53;;;11.30;99.90;;;;;;10506041;28;20193;-78
2023/03/09 07:20:40;;;;;;;8.47;3.10;;;11.30;99.90;;;;;;10515918;28;20704;-80
2023/03/09 07:25:44;;;;;;;6.27;2.83;;;11.40;99.90;;;;;;10521475;28;20201;-80
2023/03/09 07:30:46;;;;;;;4.90;2.50;;;11.50;99.90;;;;;;10517697;28;20267;-79
2023/03/09 07:35:48;;;;;;;3.57;2.47;;;11.60;99.90;;;;;;10519618;28;20197;-80
2023/03/09 07:40:52;;;;;;;5.83;3.10;;;11.60;99.90;;;;;;10516917;28;20216;-80
2023/03/09 07:45:54;;;;;;;7.70;2.60;;;11.50;99.90;;;;;;10512040;28;20206;-80
2023/03/09 07:50:59;;;;;;;4.70;2.87;;;11.60;99.90;;;;;;10507032;28;20217;-80
2023/03/09 07:56:04;;;;;;;5.53;2.50;;;11.70;99.90;;;;;;10494699;28;20647;-79
2023/03/09 08:01:07;;;;;;;7.07;2.97;;;11.80;99.90;;;;;;10507311;28;20279;-80
2023/03/09 08:06:09;;;;;;;4.50;2.60;;;12.00;99.90;;;;;;10507723;28;20236;-80
2023/03/09 08:11:13;;;;;;;5.70;2.53;;;12.20;99.90;;;;;;10500285;28;20249;-80
2023/03/09 08:16:15;;;;;;;4.30;2.43;;;12.40;99.90;;;;;;10505564;28;20258;-81
2023/03/09 08:21:17;;;;;;;4.70;2.80;;;12.50;99.90;;;;;;10505952;28;20217;-80
2023/03/09 08:26:21;;;;;;;5.10;2.50;;;12.50;99.90;;;;;;10504675;28;20284;-79
2023/03/09 08:31:23;;;;;;;3.23;2.43;;;12.60;99.90;;;;;;10484985;28;20268;-79
2023/03/09 08:36:28;;;;;;;3.87;2.60;;;12.80;99.90;;;;;;10498475;28;20259;-80
2023/03/09 08:41:32;;;;;;;3.30;2.60;;;12.90;99.90;;;;;;10490120;28;20273;-80
2023/03/09 08:46:34;;;;;;;4.87;2.80;;;13.10;99.90;;;;;;10514733;28;20221;-80
2023/03/09 08:51:36;;;;;;;4.97;2.97;;;13.10;99.90;;;;;;10514399;28;20212;-80
2023/03/09 08:56:39;;;;;;;3.10;2.57;;;13.10;99.90;;;;;;10514043;28;20261;-80
2023/03/09 09:01:41;;;;;;;2.70;1.90;;;13.10;99.90;;;;;;10522609;28;20247;-81
2023/03/09 09:06:43;;;;;;;5.90;2.27;;;13.20;99.90;;;;;;10498271;28;20193;-81
2023/03/09 09:11:47;;;;;;;3.37;1.80;;;13.50;99.90;;;;;;10515800;28;20202;-81
2023/03/09 09:16:50;;;;;;;4.17;1.83;;;13.70;99.90;;;;;;10516199;28;20245;-81
2023/03/09 09:21:54;;;;;;;1.97;1.80;;;13.60;99.90;;;;;;10516680;28;20567;-80
2023/03/09 09:26:58;;;;;;;1.97;1.70;;;13.30;99.90;;;;;;10516027;28;20479;-81
2023/03/09 09:32:00;;;;;;;3.20;2.10;;;13.10;99.90;;;;;;10522083;28;20304;-80
2023/03/09 09:37:05;;;;;;;7.20;5.60;;;12.70;99.90;;;;;;10489623;28;20205;-80
2023/03/09 09:42:15;;;;;;;2.93;2.23;;;12.60;99.90;;;;;;10504303;28;20513;-80
2023/03/09 09:47:22;;;;;;;3.33;1.70;;;12.70;99.90;;;;;;10505047;28;20198;-80
2023/03/09 09:52:39;;;;;;;2.40;1.63;;;12.90;99.90;;;;;;10501942;28;20213;-80
2023/03/09 09:57:44;;;;;;;2.50;1.80;;;13.10;99.90;;;;;;10499205;28;20211;-80
2023/03/09 10:03:08;;;;;;;3.73;2.20;;;13.20;99.90;;;;;;10501329;28;20217;-80
2023/03/09 10:08:26;;;;;;;2.97;2.10;;;13.20;99.90;;;;;;10516526;28;20212;-80
2023/03/09 10:13:35;;;;;;;3.80;2.20;;;13.30;99.90;;;;;;10493842;28;20220;-80
2023/03/09 10:18:40;;;;;;;1.60;1.50;;;13.40;99.90;;;;;;10512803;28;20197;-80
2023/03/09 10:23:43;;;;;;;3.03;1.60;;;13.50;99.90;;;;;;10512474;28;20225;-80
2023/03/09 10:28:51;;;;;;;2.93;2.53;;;13.60;99.90;;;;;;10497036;28;20197;-81
2023/03/09 10:34:00;;;;;;;2.50;1.30;;;13.60;99.90;;;;;;10499459;28;20221;-80
2023/03/09 10:39:09;;;;;;;2.77;1.90;;;13.70;99.90;;;;;;10512902;28;20205;-80
2023/03/09 10:44:17;;;;;;;2.50;1.40;;;13.70;99.90;;;;;;10516022;28;20229;-80
2023/03/09 10:49:19;;;;;;;3.60;1.80;;;13.80;99.90;;;;;;10510266;28;20217;-80
2023/03/09 10:54:27;;;;;;;3.40;1.70;;;13.70;99.90;;;;;;10514610;28;20232;-80
2023/03/09 10:59:31;;;;;;;2.67;1.70;;;13.60;99.90;;;;;;10512046;28;20189;-80
2023/03/09 11:04:38;;;;;;;4.80;2.23;;;13.40;99.90;;;;;;10512035;28;20290;-80
2023/03/09 11:09:47;;;;;;;4.43;1.97;;;13.30;99.90;;;;;;10511108;28;20232;-80
2023/03/09 11:14:53;;;;;;;3.67;2.07;;;13.20;99.90;;;;;;10510948;28;20225;-81
2023/03/09 11:20:21;;;;;;;3.90;1.80;;;13.20;99.90;;;;;;10511980;28;20232;-80
2023/03/09 11:25:35;;;;;;;5.10;2.20;;;13.20;99.90;;;;;;10513695;28;20253;-80
2023/03/09 11:30:40;;;;;;;4.73;2.37;;;13.30;99.90;;;;;;10514074;28;20585;-80
2023/03/09 11:35:43;;;;;;;5.70;2.00;;;13.40;99.90;;;;;;10515042;28;20609;-80
2023/03/09 11:40:47;;;;;;;3.63;2.37;;;13.50;99.90;;;;;;10516404;28;20236;-80
2023/03/09 11:45:55;;;;;;;3.37;2.33;;;13.60;99.90;;;;;;10516361;28;20193;-80
2023/03/09 11:51:01;;;;;;;6.13;2.63;;;13.70;99.80;;;;;;10497573;28;20662;-80
2023/03/09 11:56:17;;;;;;;6.03;3.03;;;13.90;98.60;;;;;;10514696;28;20204;-80
2023/03/09 12:01:26;;;;;;;3.27;1.87;;;13.90;99.30;;;;;;10515724;28;20239;-80
2023/03/09 12:06:36;;;;;;;3.33;2.03;;;14.00;97.90;;;;;;10514143;28;20258;-81
2023/03/09 12:11:42;;;;;;;3.83;2.60;;;14.00;97.20;;;;;;10499002;28;20262;-81
2023/03/09 12:16:49;;;;;;;3.00;2.10;;;13.90;98.80;;;;;;10484830;28;20688;-81
2023/03/09 12:22:02;;;;;;;4.47;2.53;;;13.70;99.20;;;;;;10482646;28;20217;-79
2023/03/09 12:27:13;;;;;;;3.13;2.50;;;13.70;99.10;;;;;;10501067;28;20594;-81
2023/03/09 12:32:36;;;;;;;6.30;2.23;;;13.70;98.50;;;;;;10484383;28;20213;-82
2023/03/09 12:37:57;;;;;;;2.77;2.20;;;13.70;98.60;;;;;;10448419;28;20213;-81
2023/03/09 12:43:47;;;;;;;2.73;2.30;;;13.60;99.00;;;;;;10473568;28;20604;-81
2023/03/09 12:48:50;;;;;;;4.53;2.80;;;13.70;97.90;;;;;;10499216;28;20687;-81
2023/03/09 12:53:59;;;;;;;3.93;2.73;;;13.60;98.90;;;;;;10481605;28;20563;-79
2023/03/09 12:59:09;;;;;;;4.77;2.23;;;13.60;99.40;;;;;;10499443;28;20673;-82
2023/03/09 13:04:15;;;;;;;3.07;1.90;;;13.70;98.90;;;;;;10484099;28;20607;-81
2023/03/09 13:09:20;;;;;;;3.80;2.47;;;13.90;97.70;;;;;;10499915;28;20211;-81
2023/03/09 13:14:56;;;;;;;2.77;1.87;;;13.90;98.00;;;;;;10500384;28;20699;-80
2023/03/09 13:20:15;;;;;;;2.57;2.30;;;14.00;98.10;;;;;;10444455;28;20262;-81
2023/03/09 13:25:36;;;;;;;5.53;2.60;;;14.10;97.30;;;;;;10497651;28;20238;-81
2023/03/09 13:30:43;;;;;;;3.90;2.57;;;14.20;97.80;;;;;;10502037;28;20270;-79
2023/03/09 13:35:52;;;;;;;3.83;2.97;;;14.20;98.00;;;;;;10498682;28;20253;-79
2023/03/09 13:40:56;;;;;;;3.57;2.30;;;14.30;97.80;;;;;;10499823;28;20227;-82
2023/03/09 13:46:11;;;;;;;5.00;2.10;;;14.40;97.10;;;;;;10488961;28;20220;-81
2023/03/09 13:51:32;;;;;;;6.70;2.80;;;14.50;96.70;;;;;;10505861;28;20700;-80
2023/03/09 13:56:34;;;;;;;3.90;2.40;;;14.50;97.00;;;;;;10493392;28;20269;-81
2023/03/09 14:01:36;;;;;;;3.20;2.40;;;14.40;98.20;;;;;;10512190;28;20227;-81
2023/03/09 14:06:40;;;;;;;4.10;2.57;;;14.20;99.20;;;;;;10514152;28;20201;-81
2023/03/09 14:11:42;;;;;;;4.50;2.57;;;14.10;98.70;;;;;;10512863;28;20614;-78
2023/03/09 14:16:47;;;;;;;10.50;2.80;;;14.00;99.90;;;;;;10520801;28;20664;-81
2023/03/09 14:21:53;;;;;;;5.50;3.57;;;14.10;99.60;;;;;;10505826;28;20221;-80
2023/03/09 14:26:55;;;;;;;7.30;3.40;;;14.10;99.20;;;;;;10488363;28;20669;-79
2023/03/09 14:32:34;;;;;;;5.67;2.53;;;14.20;98.10;;;;;;10508430;28;20213;-79
2023/03/09 14:37:38;;;;;;;4.57;3.23;;;14.40;99.00;;;;;;10509906;28;20265;-81
2023/03/09 14:42:40;;;;;;;7.50;2.77;;;14.40;98.40;;;;;;10498848;28;20233;-79
2023/03/09 14:47:43;;;;;;;2.60;2.40;;;14.40;98.20;;;;;;10509727;28;20255;-79
2023/03/09 14:52:47;;;;;;;5.10;3.00;;;14.50;98.70;;;;;;10516329;28;20229;-79
2023/03/09 14:57:49;;;;;;;4.20;2.33;;;14.40;97.70;;;;;;10516339;28;20201;-80
2023/03/09 15:02:52;;;;;;;4.43;2.50;;;14.30;98.90;;;;;;10518649;28;20252;-79
2023/03/09 15:07:56;;;;;;;4.03;2.67;;;14.10;98.70;;;;;;10489005;28;20201;-79
2023/03/09 15:12:58;;;;;;;4.93;2.60;;;14.10;98.20;;;;;;10510648;28;20216;-79
2023/03/09 15:18:00;;;;;;;4.07;2.43;;;14.00;97.80;;;;;;10512086;28;20200;-79
2023/03/09 15:23:04;;;;;;;4.50;2.40;;;13.90;98.30;;;;;;10513689;28;20231;-79
2023/03/09 15:28:06;;;;;;;4.20;2.33;;;13.80;98.30;;;;;;10513529;28;20284;-79
2023/03/09 15:33:08;;;;;;;3.60;2.27;;;13.80;98.50;;;;;;10496908;28;20733;-79
2023/03/09 15:38:11;;;;;;;3.83;2.67;;;13.80;98.50;;;;;;10513627;28;20689;-82
2023/03/09 15:43:13;;;;;;;3.67;2.03;;;13.80;98.10;;;;;;10519651;28;20225;-80
2023/03/09 15:48:15;;;;;;;3.77;2.27;;;13.80;97.90;;;;;;10516922;28;20185;-80
2023/03/09 15:53:19;;;;;;;3.80;2.70;;;13.70;98.10;;;;;;10513258;28;20221;-80
2023/03/09 15:58:23;;;;;;;4.97;2.60;;;13.80;98.20;;;;;;10510536;28;20229;-80
2023/03/09 16:03:26;;;;;;;9.70;2.73;;;13.80;98.00;;;;;;10531938;28;20216;-77
2023/03/09 16:08:30;;;;;;;4.73;2.53;;;13.80;97.10;;;;;;10498477;28;20262;-79
2023/03/09 16:13:32;;;;;;;3.93;2.60;;;13.70;99.40;;;;;;10501280;28;20264;-81
2023/03/09 16:18:34;;;;;;;6.30;2.50;;;13.60;99.80;;;;;;10498853;28;20569;-79
2023/03/09 16:23:38;;;;;;;6.40;2.70;;;13.60;99.90;;;;;;10480697;28;20564;-81
2023/03/09 16:28:40;;;;;;;8.23;3.40;;;13.60;99.20;;;;;;10500777;28;20197;-79
2023/03/09 16:33:43;;;;;;;8.50;3.30;;;13.60;98.60;;;;;;10495243;28;20233;-78
2023/03/09 16:38:47;;;;;;;9.63;3.90;;;13.50;99.10;;;;;;10492042;28;20193;-79
2023/03/09 16:43:50;;;;;;;8.70;5.07;;;13.50;98.10;;;;;;10501420;28;20617;-79
2023/03/09 16:48:53;;;;;;;7.30;3.90;;;13.40;97.70;;;;;;10472862;28;20212;-80
2023/03/09 16:53:57;;;;;;;7.53;3.57;;;13.30;98.20;;;;;;10499473;28;20581;-79
2023/03/09 16:58:59;;;;;;;4.67;2.80;;;13.30;98.20;;;;;;10499153;28;20251;-80
2023/03/09 17:04:02;;;;;;;7.70;3.57;;;13.20;97.70;;;;;;10501693;28;20573;-80
2023/03/09 17:09:05;;;;;;;8.00;3.40;;;13.20;97.90;;;;;;10503578;28;20228;-81
2023/03/09 17:14:08;;;;;;;6.07;4.10;;;13.10;97.40;;;;;;10483488;28;20764;-81
2023/03/09 17:19:10;;;;;;;5.33;3.37;;;13.10;96.30;;;;;;10509751;28;20198;-81
2023/03/09 17:24:14;;;;;;;7.53;3.30;;;13.00;97.20;;;;;;10511094;28;20220;-81
2023/03/09 17:29:16;;;;;;;8.43;2.90;;;13.00;97.50;;;;;;10493331;28;20231;-81
2023/03/09 17:34:19;;;;;;;12.10;7.00;;;13.00;96.80;;;;;;10495981;28;20197;-81
2023/03/09 17:39:25;;;;;;;8.37;5.33;;;12.90;98.60;;;;;;10497615;28;20201;-79
2023/03/09 17:44:27;;;;;;;6.63;4.30;;;12.90;98.20;;;;;;10515387;28;20221;-80
2023/03/09 17:49:29;;;;;;;8.73;4.47;;;12.80;97.20;;;;;;10513098;28;20193;-80
2023/03/09 17:54:33;;;;;;;7.57;3.50;;;12.80;97.10;;;;;;10509001;28;20189;-78
2023/03/09 17:59:38;;;;;;;5.83;4.50;;;12.80;96.30;;;;;;10506824;28;20197;-79
2023/03/09 18:04:47;;;;;;;8.07;3.57;;;12.80;96.60;;;;;;10489054;28;20220;-78
2023/03/09 18:09:51;;;;;;;6.03;3.20;;;12.70;96.90;;;;;;10506066;28;20225;-79
2023/03/09 18:14:55;;;;;;;8.73;5.30;;;12.60;97.30;;;;;;10489575;28;20201;-79
2023/03/09 18:19:58;;;;;;;10.33;4.83;;;12.40;97.50;;;;;;10505392;28;20614;-79
2023/03/09 18:25:03;;;;;;;8.83;5.60;;;12.20;97.80;;;;;;10507145;28;20235;-79
2023/03/09 18:30:09;;;;;;;11.83;7.47;;;12.10;97.90;;;;;;10487543;28;20252;-78
2023/03/09 18:35:12;;;;;;;35.30;21.20;;;11.90;98.20;;;;;;10506643;28;20181;-78
2023/03/09 18:40:17;;;;;;;21.67;14.97;;;11.80;98.90;;;;;;10506614;28;20229;-78
2023/03/09 18:45:22;;;;;;;47.30;30.00;;;11.80;99.30;;;;;;10508564;28;20326;-79
2023/03/09 18:50:25;;;;;;;31.30;17.63;;;11.80;99.90;;;;;;10507986;28;20216;-80
2023/03/09 18:55:28;;;;;;;42.03;27.23;;;11.90;99.00;;;;;;10508939;28;20198;-77
2023/03/09 19:00:32;;;;;;;17.63;11.60;;;11.90;99.40;;;;;;10503931;28;20216;-78
2023/03/09 19:05:34;;;;;;;8.90;7.40;;;11.80;99.90;;;;;;10502631;28;20605;-77
2023/03/09 19:10:39;;;;;;;13.50;12.10;;;11.90;99.70;;;;;;10501759;28;20709;-78
2023/03/09 19:15:46;;;;;;;11.83;6.97;;;11.90;99.10;;;;;;10499316;28;20201;-79
2023/03/09 19:20:48;;;;;;;11.00;5.60;;;11.80;98.90;;;;;;10502830;28;20217;-78
2023/03/09 19:25:56;;;;;;;7.50;4.57;;;11.80;98.80;;;;;;10498110;28;20736;-78
2023/03/09 19:31:09;;;;;;;8.20;4.50;;;11.80;98.50;;;;;;10478721;28;20697;-78
2023/03/09 19:36:15;;;;;;;10.90;4.90;;;11.70;98.60;;;;;;10493539;28;20201;-77
2023/03/09 19:41:20;;;;;;;8.57;4.83;;;11.70;98.70;;;;;;10469581;28;20282;-78
2023/03/09 19:46:25;;;;;;;8.17;4.00;;;11.70;98.10;;;;;;10485238;28;20240;-78
2023/03/09 19:51:32;;;;;;;6.07;4.87;;;11.70;98.50;;;;;;10491120;28;20213;-78
2023/03/09 19:56:39;;;;;;;9.87;4.97;;;11.70;98.10;;;;;;10484651;28;20205;-78
2023/03/09 20:01:43;;;;;;;7.47;3.60;;;11.70;97.60;;;;;;10479600;28;20220;-78
2023/03/09 20:06:48;;;;;;;10.10;4.33;;;11.70;97.80;;;;;;10481390;28;20197;-78
2023/03/09 20:11:52;;;;;;;5.30;2.70;;;11.70;98.10;;;;;;10496814;28;20263;-79
2023/03/09 20:16:55;;;;;;;6.57;3.27;;;11.90;96.50;;;;;;10494961;28;20284;-78
2023/03/09 20:22:04;;;;;;;5.13;3.93;;;11.80;96.50;;;;;;10468394;28;20209;-78
2023/03/09 20:27:08;;;;;;;5.90;3.40;;;12.00;95.30;;;;;;10486172;28;20205;-78
2023/03/09 20:32:11;;;;;;;6.87;3.80;;;12.00;96.20;;;;;;10462311;28;20217;-78
2023/03/09 20:37:14;;;;;;;6.17;4.00;;;12.10;95.10;;;;;;10490071;28;20197;-78
2023/03/09 20:42:17;;;;;;;8.33;4.70;;;12.20;94.60;;;;;;10527282;22;20236;-84
2023/03/09 20:47:19;;;;;;;4.90;2.90;;;12.30;94.70;;;;;;10499863;28;20229;-84
2023/03/09 20:52:21;;;;;;;7.60;3.63;;;12.30;93.70;;;;;;10504079;28;20221;-84
2023/03/09 20:57:26;;;;;;;5.67;3.00;;;12.30;95.50;;;;;;10497390;28;20209;-83
2023/03/09 21:02:28;;;;;;;6.20;3.30;;;12.40;94.20;;;;;;10497251;28;20703;-83
2023/03/09 21:07:30;;;;;;;4.57;3.30;;;12.50;93.20;;;;;;10517512;28;20598;-84
2023/03/09 21:12:36;;;;;;;6.97;4.03;;;12.50;93.10;;;;;;10536003;28;20296;-84
2023/03/09 21:17:38;;;;;;;4.30;2.97;;;12.60;92.90;;;;;;10530983;28;20276;-82
2023/03/09 21:22:41;;;;;;;8.07;4.27;;;12.60;92.90;;;;;;10500767;28;20221;-84
2023/03/09 21:27:44;;;;;;;3.30;3.00;;;12.60;92.90;;;;;;10515100;28;20215;-82
2023/03/09 21:32:46;;;;;;;3.90;3.07;;;12.60;92.80;;;;;;10525463;28;20308;-83
2023/03/09 21:37:49;;;;;;;6.60;4.00;;;12.60;92.70;;;;;;10532012;28;20284;-84
2023/03/09 21:42:52;;;;;;;3.80;3.40;;;12.60;92.60;;;;;;10488550;28;20259;-84
2023/03/09 21:47:54;;;;;;;4.10;3.70;;;12.50;92.40;;;;;;10520663;28;20235;-82
2023/03/09 21:52:57;;;;;;;4.03;3.20;;;12.50;92.30;;;;;;10530110;28;20232;-82
2023/03/09 21:58:00;;;;;;;7.30;3.40;;;12.40;92.80;;;;;;10516441;28;20212;-83
2023/03/09 22:03:02;;;;;;;5.63;3.67;;;12.40;92.10;;;;;;10548048;28;20221;-84
2023/03/09 22:08:05;;;;;;;4.50;3.00;;;12.40;92.60;;;;;;10528894;28;20697;-82
2023/03/09 22:13:10;;;;;;;6.83;3.17;;;12.40;92.60;;;;;;10504283;28;20619;-81
2023/03/09 22:18:12;;;;;;;5.50;3.60;;;12.30;92.60;;;;;;10490524;28;20232;-83
2023/03/09 22:23:14;;;;;;;3.50;3.03;;;12.40;92.70;;;;;;10486903;28;20271;-84
2023/03/09 22:28:20;;;;;;;4.30;3.27;;;12.30;92.70;;;;;;10500604;28;20205;-83
2023/03/09 22:33:22;;;;;;;7.37;3.20;;;12.30;92.70;;;;;;10502389;28;20226;-84
2023/03/09 22:38:24;;;;;;;4.97;3.47;;;12.30;93.40;;;;;;10524911;28;20223;-84
2023/03/09 22:43:32;;;;;;;4.50;3.50;;;12.30;92.90;;;;;;10510525;28;20255;-84
2023/03/09 22:48:35;;;;;;;5.00;3.27;;;12.30;93.30;;;;;;10535718;28;20214;-84
2023/03/09 22:53:37;;;;;;;7.73;3.50;;;12.30;94.00;;;;;;10516873;28;20222;-84
2023/03/09 22:58:41;;;;;;;4.93;3.10;;;12.30;93.70;;;;;;10482221;28;20225;-83
2023/03/09 23:03:47;;;;;;;4.33;3.20;;;12.30;93.50;;;;;;10502030;28;20257;-83
2023/03/09 23:08:50;;;;;;;3.00;2.70;;;12.30;94.20;;;;;;10488495;28;20203;-83
2023/03/09 23:13:54;;;;;;;5.60;2.80;;;12.40;93.70;;;;;;10485612;28;20769;-83
2023/03/09 23:18:56;;;;;;;3.00;2.60;;;12.40;94.10;;;;;;10488139;28;20282;-83
2023/03/09 23:23:59;;;;;;;3.73;2.47;;;12.40;93.80;;;;;;10515530;28;20517;-83
2023/03/09 23:29:14;;;;;;;3.47;2.50;;;12.40;93.80;;;;;;10509722;28;20198;-84
2023/03/09 23:34:16;;;;;;;5.17;2.90;;;12.30;93.90;;;;;;10522297;28;20714;-84
2023/03/09 23:39:18;;;;;;;4.53;2.67;;;12.30;94.50;;;;;;10525099;28;20200;-82
2023/03/09 23:44:22;;;;;;;4.67;2.60;;;12.30;94.40;;;;;;10501335;28;20248;-83
2023/03/09 23:49:24;;;;;;;5.10;3.27;;;12.30;94.80;;;;;;10542254;28;20287;-83
2023/03/09 23:54:26;;;;;;;3.07;2.20;;;12.30;95.80;;;;;;10507829;28;20213;-82
2023/03/09 23:59:30;;;;;;;4.87;2.37;;;12.30;95.10;;;;;;10509027;28;20201;-83
